Time;durP1;ratioP1;P1;durP2;ratioP2;P2;SDS_P1;SDS_P2;PMS_P1;PMS_P2;Temp;Humidity;BMP_temperature;BMP_pressure;BME280_temperature;BME280_humidity;BME280_pressure;Samples;Min_cycle;Max_cycle;Signal;HPM_P1;HPM_P2
2023/08/18 00:00:28;;;;;;;7.53;2.15;;;;;;;;;;5030290;28;20063;-45
2023/08/18 00:02:54;;;;;;;4.85;2.22;;;;;;;;;;5034815;28;20033;-45
2023/08/18 00:05:19;;;;;;;3.10;1.02;;;;;;;;;;5035061;28;20029;-45
2023/08/18 00:07:44;;;;;;;3.63;1.85;;;;;;;;;;5032861;28;20640;-45
2023/08/18 00:10:10;;;;;;;9.85;1.98;;;;;;;;;;5039774;28;20453;-45
2023/08/18 00:12:35;;;;;;;7.93;2.30;;;;;;;;;;5038544;28;20025;-45
2023/08/18 00:15:01;;;;;;;7.77;1.90;;;;;;;;;;5039130;28;20694;-45
2023/08/18 00:17:26;;;;;;;6.00;1.92;;;;;;;;;;5033559;28;20114;-44
2023/08/18 00:19:52;;;;;;;5.17;2.13;;;;;;;;;;5035468;28;20028;-44
2023/08/18 00:22:17;;;;;;;7.82;2.38;;;;;;;;;;5041115;28;20307;-45
2023/08/18 00:24:43;;;;;;;7.40;2.42;;;;;;;;;;5030178;28;20057;-45
2023/08/18 00:27:08;;;;;;;6.57;2.17;;;;;;;;;;5039286;28;20044;-45
2023/08/18 00:29:33;;;;;;;5.93;2.37;;;;;;;;;;5036914;28;20032;-45
2023/08/18 00:31:59;;;;;;;4.10;2.07;;;;;;;;;;5044345;28;20604;-45
2023/08/18 00:34:24;;;;;;;4.85;2.30;;;;;;;;;;5038992;28;20095;-45
2023/08/18 00:36:49;;;;;;;6.73;2.30;;;;;;;;;;5038937;28;20559;-45
2023/08/18 00:39:15;;;;;;;4.93;2.80;;;;;;;;;;5043681;28;20030;-45
2023/08/18 00:41:40;;;;;;;6.95;2.30;;;;;;;;;;5037518;28;20047;-45
2023/08/18 00:44:06;;;;;;;4.97;2.30;;;;;;;;;;5042019;28;20105;-45
2023/08/18 00:46:31;;;;;;;4.15;1.95;;;;;;;;;;5037306;28;20112;-45
2023/08/18 00:49:01;;;;;;;5.70;2.78;;;;;;;;;;5030899;28;20032;-45
2023/08/18 00:51:26;;;;;;;4.38;2.22;;;;;;;;;;5039382;28;20033;-45
2023/08/18 00:53:52;;;;;;;6.43;2.80;;;;;;;;;;5042336;28;20017;-45
2023/08/18 00:56:17;;;;;;;5.65;2.28;;;;;;;;;;5043117;28;20600;-46
2023/08/18 00:58:43;;;;;;;5.97;2.97;;;;;;;;;;5028018;28;20037;-45
2023/08/18 01:01:08;;;;;;;3.97;1.67;;;;;;;;;;5041023;28;20149;-45
2023/08/18 01:03:34;;;;;;;3.60;2.27;;;;;;;;;;5036047;28;20291;-45
2023/08/18 01:05:59;;;;;;;6.20;2.55;;;;;;;;;;5042645;28;20762;-45
2023/08/18 01:08:24;;;;;;;7.43;2.38;;;;;;;;;;5041038;28;20021;-45
2023/08/18 01:10:56;;;;;;;5.85;3.15;;;;;;;;;;5039011;28;20027;-45
2023/08/18 01:13:21;;;;;;;5.45;2.38;;;;;;;;;;5031049;28;20017;-45
2023/08/18 01:15:48;;;;;;;5.97;1.92;;;;;;;;;;5038338;28;20037;-45
2023/08/18 01:18:14;;;;;;;3.38;2.33;;;;;;;;;;5037986;28;20036;-45
2023/08/18 01:20:40;;;;;;;7.15;2.70;;;;;;;;;;5037001;28;20113;-45
2023/08/18 01:23:05;;;;;;;5.18;2.08;;;;;;;;;;5037297;28;20080;-44
2023/08/18 01:25:31;;;;;;;4.20;2.33;;;;;;;;;;5040571;28;20140;-44
2023/08/18 01:27:57;;;;;;;5.10;2.47;;;;;;;;;;5041298;28;20059;-45
2023/08/18 01:30:46;;;;;;;7.20;2.85;;;;;;;;;;5031518;28;21868;-45
2023/08/18 01:33:23;;;;;;;4.90;2.55;;;;;;;;;;5025088;28;20523;-45
2023/08/18 01:35:49;;;;;;;5.75;2.38;;;;;;;;;;5032536;28;20167;-45
2023/08/18 01:38:15;;;;;;;7.57;2.53;;;;;;;;;;5042319;28;20112;-45
2023/08/18 01:40:41;;;;;;;7.00;2.25;;;;;;;;;;5042691;28;20533;-45
2023/08/18 01:43:06;;;;;;;4.55;2.47;;;;;;;;;;5039443;28;20025;-45
2023/08/18 01:45:32;;;;;;;4.13;2.60;;;;;;;;;;5036793;28;20044;-45
2023/08/18 01:47:57;;;;;;;3.78;1.95;;;;;;;;;;5022925;28;20104;-45
2023/08/18 01:50:23;;;;;;;3.00;2.08;;;;;;;;;;5037724;28;20036;-45
2023/08/18 01:52:48;;;;;;;6.07;2.57;;;;;;;;;;5036139;28;20021;-45
2023/08/18 01:55:13;;;;;;;7.80;2.43;;;;;;;;;;5037960;28;20278;-45
2023/08/18 01:57:38;;;;;;;5.97;2.55;;;;;;;;;;5040659;28;20036;-45
2023/08/18 02:00:04;;;;;;;5.13;2.93;;;;;;;;;;5042130;28;20103;-45
2023/08/18 02:02:29;;;;;;;10.45;2.92;;;;;;;;;;5033983;28;20372;-45
2023/08/18 02:04:56;;;;;;;6.30;3.07;;;;;;;;;;5037880;28;20099;-45
2023/08/18 02:07:21;;;;;;;6.50;2.67;;;;;;;;;;5033930;28;20128;-45
2023/08/18 02:09:47;;;;;;;7.17;2.57;;;;;;;;;;5031825;28;20140;-45
2023/08/18 02:12:12;;;;;;;4.80;3.10;;;;;;;;;;5039062;28;20272;-45
2023/08/18 02:14:37;;;;;;;9.88;5.45;;;;;;;;;;5019235;28;20287;-45
2023/08/18 02:17:02;;;;;;;8.73;3.27;;;;;;;;;;5033416;28;20029;-45
2023/08/18 02:19:28;;;;;;;4.55;2.10;;;;;;;;;;5030067;28;20029;-45
2023/08/18 02:21:54;;;;;;;6.23;2.77;;;;;;;;;;5011603;28;20025;-45
2023/08/18 02:24:19;;;;;;;3.35;2.25;;;;;;;;;;5032960;28;20275;-45
2023/08/18 02:26:44;;;;;;;6.33;2.70;;;;;;;;;;5044256;28;20021;-45
2023/08/18 02:29:10;;;;;;;7.90;2.57;;;;;;;;;;5038920;28;20290;-45
2023/08/18 02:31:36;;;;;;;10.57;2.87;;;;;;;;;;5037442;28;20042;-45
2023/08/18 02:34:02;;;;;;;4.75;2.42;;;;;;;;;;5043018;28;20301;-45
2023/08/18 02:36:27;;;;;;;4.82;2.55;;;;;;;;;;5032053;28;20433;-45
2023/08/18 02:38:52;;;;;;;5.83;2.70;;;;;;;;;;5037376;28;20067;-45
2023/08/18 02:41:18;;;;;;;13.03;6.70;;;;;;;;;;5032932;28;20280;-45
2023/08/18 02:43:45;;;;;;;12.07;6.85;;;;;;;;;;5040636;28;20047;-45
2023/08/18 02:46:11;;;;;;;7.10;3.53;;;;;;;;;;5033857;28;20024;-45
2023/08/18 02:48:36;;;;;;;4.43;2.73;;;;;;;;;;5038750;28;20052;-45
2023/08/18 02:51:05;;;;;;;8.53;2.80;;;;;;;;;;5032433;28;20495;-45
2023/08/18 02:53:31;;;;;;;8.80;2.60;;;;;;;;;;5038571;28;20071;-45
2023/08/18 02:55:56;;;;;;;5.03;2.92;;;;;;;;;;5040099;28;20029;-45
2023/08/18 02:58:22;;;;;;;6.80;2.83;;;;;;;;;;5039099;28;20066;-46
2023/08/18 03:00:47;;;;;;;7.50;2.55;;;;;;;;;;5042313;28;20112;-45
2023/08/18 03:03:12;;;;;;;6.05;3.10;;;;;;;;;;5026514;28;20070;-45
2023/08/18 03:05:38;;;;;;;4.67;2.30;;;;;;;;;;5042642;28;20396;-45
2023/08/18 03:08:03;;;;;;;10.30;3.13;;;;;;;;;;5023184;28;20108;-45
2023/08/18 03:10:29;;;;;;;9.13;2.70;;;;;;;;;;5038128;28;20104;-45
2023/08/18 03:12:54;;;;;;;9.30;3.13;;;;;;;;;;5031831;28;20039;-45
2023/08/18 03:15:20;;;;;;;5.13;2.70;;;;;;;;;;5033245;28;20029;-45
2023/08/18 03:17:45;;;;;;;6.13;2.80;;;;;;;;;;5038218;28;20025;-45
2023/08/18 03:20:10;;;;;;;14.67;7.57;;;;;;;;;;5034682;28;20037;-45
2023/08/18 03:22:36;;;;;;;10.32;5.10;;;;;;;;;;5038384;28;20392;-45
2023/08/18 03:25:02;;;;;;;8.00;4.38;;;;;;;;;;5040225;28;20021;-45
2023/08/18 03:27:27;;;;;;;7.85;3.97;;;;;;;;;;5025119;28;20037;-45
2023/08/18 03:29:55;;;;;;;10.43;3.30;;;;;;;;;;5038925;28;20021;-45
2023/08/18 03:32:20;;;;;;;8.82;3.05;;;;;;;;;;5035300;28;20683;-45
2023/08/18 03:34:47;;;;;;;9.98;2.88;;;;;;;;;;5035160;28;20057;-45
2023/08/18 03:37:12;;;;;;;5.45;2.75;;;;;;;;;;5041088;28;20068;-45
2023/08/18 03:39:37;;;;;;;7.97;3.20;;;;;;;;;;5037686;28;20048;-44
2023/08/18 03:42:03;;;;;;;4.57;2.87;;;;;;;;;;5043670;28;20482;-45
2023/08/18 03:44:28;;;;;;;6.65;3.33;;;;;;;;;;5029139;28;20028;-45
2023/08/18 03:46:53;;;;;;;11.43;6.67;;;;;;;;;;5040244;28;20033;-45
2023/08/18 03:49:19;;;;;;;9.87;6.10;;;;;;;;;;5038471;28;20020;-45
2023/08/18 03:51:45;;;;;;;12.45;4.55;;;;;;;;;;5040389;28;20299;-45
2023/08/18 03:54:10;;;;;;;8.43;3.55;;;;;;;;;;5033808;28;20068;-45
2023/08/18 03:56:35;;;;;;;7.47;2.90;;;;;;;;;;5037173;28;20108;-45
2023/08/18 03:59:00;;;;;;;9.73;3.37;;;;;;;;;;5042670;28;20279;-45
2023/08/18 04:01:26;;;;;;;7.13;3.30;;;;;;;;;;5028591;28;20020;-45
2023/08/18 04:03:51;;;;;;;17.20;6.70;;;;;;;;;;5039046;28;20016;-45
2023/08/18 04:06:16;;;;;;;6.40;3.67;;;;;;;;;;5043648;28;20321;-45
2023/08/18 04:08:42;;;;;;;5.47;2.88;;;;;;;;;;5035290;28;20029;-45
2023/08/18 04:11:08;;;;;;;4.88;3.00;;;;;;;;;;5037281;28;20480;-45
2023/08/18 04:13:34;;;;;;;10.07;3.40;;;;;;;;;;5034061;28;20021;-45
2023/08/18 04:15:59;;;;;;;9.27;3.30;;;;;;;;;;5034399;28;20569;-45
2023/08/18 04:18:25;;;;;;;7.05;3.35;;;;;;;;;;5034699;28;20124;-45
2023/08/18 04:20:50;;;;;;;5.63;2.67;;;;;;;;;;5034988;28;20053;-45
2023/08/18 04:23:15;;;;;;;4.23;2.70;;;;;;;;;;5044387;28;20086;-45
2023/08/18 04:25:42;;;;;;;8.75;3.28;;;;;;;;;;5037326;28;20025;-45
2023/08/18 04:28:07;;;;;;;5.60;2.50;;;;;;;;;;5033336;28;20482;-45
2023/08/18 04:30:33;;;;;;;5.35;3.03;;;;;;;;;;5035400;28;20022;-45
2023/08/18 04:32:58;;;;;;;6.87;3.40;;;;;;;;;;5035778;28;26813;-45
2023/08/18 04:35:23;;;;;;;9.60;3.23;;;;;;;;;;5029412;28;20278;-45
2023/08/18 04:37:48;;;;;;;7.50;3.17;;;;;;;;;;5040644;28;20575;-45
2023/08/18 04:40:14;;;;;;;10.30;3.50;;;;;;;;;;5031350;28;20112;-45
2023/08/18 04:42:39;;;;;;;4.90;3.23;;;;;;;;;;5036994;28;20106;-45
2023/08/18 04:45:04;;;;;;;8.60;3.40;;;;;;;;;;5039458;28;20033;-45
2023/08/18 04:47:30;;;;;;;10.10;3.65;;;;;;;;;;5035863;28;20108;-45
2023/08/18 04:49:55;;;;;;;7.40;3.17;;;;;;;;;;5036809;28;20028;-45
2023/08/18 04:52:21;;;;;;;10.47;3.90;;;;;;;;;;5042824;28;20591;-45
2023/08/18 04:54:46;;;;;;;14.60;7.20;;;;;;;;;;5032033;28;20033;-45
2023/08/18 04:57:11;;;;;;;8.93;3.93;;;;;;;;;;5037427;28;20431;-45
2023/08/18 04:59:36;;;;;;;6.72;3.88;;;;;;;;;;5035942;28;20021;-45
2023/08/18 05:02:02;;;;;;;6.28;3.60;;;;;;;;;;5035183;28;20040;-45
2023/08/18 05:04:27;;;;;;;6.95;3.10;;;;;;;;;;5030687;28;20021;-45
2023/08/18 05:06:53;;;;;;;5.47;2.37;;;;;;;;;;5041383;28;20044;-45
2023/08/18 05:09:18;;;;;;;7.35;3.00;;;;;;;;;;5037682;28;20044;-45
2023/08/18 05:11:43;;;;;;;9.33;3.77;;;;;;;;;;5033147;28;20521;-45
2023/08/18 05:14:08;;;;;;;11.23;2.93;;;;;;;;;;5036433;28;20032;-45
2023/08/18 05:16:34;;;;;;;7.90;3.43;;;;;;;;;;5035387;28;20039;-45
2023/08/18 05:18:59;;;;;;;10.45;3.15;;;;;;;;;;5044472;28;20275;-45
2023/08/18 05:21:25;;;;;;;8.63;3.83;;;;;;;;;;5036798;28;20033;-45
2023/08/18 05:23:50;;;;;;;11.35;3.97;;;;;;;;;;5040118;28;20044;-45
2023/08/18 05:26:15;;;;;;;6.23;3.27;;;;;;;;;;5036970;28;20029;-45
2023/08/18 05:28:41;;;;;;;7.37;3.80;;;;;;;;;;5046479;28;20298;-45
2023/08/18 05:31:09;;;;;;;7.88;3.53;;;;;;;;;;5035876;28;20028;-45
2023/08/18 05:33:34;;;;;;;10.23;3.72;;;;;;;;;;5042501;28;20052;-45
2023/08/18 05:36:00;;;;;;;15.80;4.30;;;;;;;;;;5039779;28;20053;-45
2023/08/18 05:38:26;;;;;;;8.10;4.20;;;;;;;;;;5034115;28;20017;-45
2023/08/18 05:40:53;;;;;;;16.40;4.47;;;;;;;;;;5039501;28;20027;-45
2023/08/18 05:43:19;;;;;;;5.63;2.80;;;;;;;;;;5043272;28;20036;-45
2023/08/18 05:45:46;;;;;;;11.25;4.22;;;;;;;;;;5037216;28;20032;-45
2023/08/18 05:48:11;;;;;;;8.55;3.67;;;;;;;;;;5042837;28;20024;-45
2023/08/18 05:50:36;;;;;;;8.45;3.95;;;;;;;;;;5038016;28;20438;-45
2023/08/18 05:53:02;;;;;;;9.40;5.20;;;;;;;;;;5033814;28;20463;-45
2023/08/18 05:55:28;;;;;;;12.43;5.82;;;;;;;;;;5032690;28;20033;-45
2023/08/18 05:57:53;;;;;;;12.77;4.85;;;;;;;;;;5034040;28;20875;-45
2023/08/18 06:00:19;;;;;;;9.07;4.05;;;;;;;;;;5034336;28;20029;-45
2023/08/18 06:02:44;;;;;;;7.78;4.03;;;;;;;;;;5041392;28;20032;-45
2023/08/18 06:05:12;;;;;;;12.23;4.00;;;;;;;;;;5032700;28;20060;-45
2023/08/18 06:07:41;;;;;;;4.93;3.50;;;;;;;;;;5035408;28;20033;-45
2023/08/18 06:10:06;;;;;;;8.65;4.03;;;;;;;;;;5032424;28;20033;-45
2023/08/18 06:12:32;;;;;;;5.93;3.22;;;;;;;;;;5037810;28;20082;-45
2023/08/18 06:14:57;;;;;;;4.35;3.10;;;;;;;;;;5037174;28;20021;-45
2023/08/18 06:17:22;;;;;;;6.67;3.50;;;;;;;;;;5032768;28;20116;-45
2023/08/18 06:19:48;;;;;;;5.57;3.50;;;;;;;;;;5032741;28;20678;-45
2023/08/18 06:22:13;;;;;;;7.07;3.53;;;;;;;;;;5039693;28;20025;-45
2023/08/18 06:24:39;;;;;;;6.57;3.53;;;;;;;;;;5033690;28;20452;-45
2023/08/18 06:27:04;;;;;;;6.53;4.18;;;;;;;;;;5044437;28;20091;-45
2023/08/18 06:29:30;;;;;;;4.85;3.38;;;;;;;;;;5040180;28;20108;-45
2023/08/18 06:31:55;;;;;;;7.53;3.53;;;;;;;;;;5044894;28;20021;-45
2023/08/18 06:34:20;;;;;;;7.30;3.30;;;;;;;;;;5040061;28;20276;-45
2023/08/18 06:36:46;;;;;;;7.83;3.37;;;;;;;;;;5038650;28;20108;-45
2023/08/18 06:39:11;;;;;;;5.95;3.60;;;;;;;;;;5048133;28;20079;-45
2023/08/18 06:41:39;;;;;;;9.80;4.03;;;;;;;;;;5045464;28;20098;-45
2023/08/18 06:44:05;;;;;;;9.80;4.45;;;;;;;;;;5020303;28;20024;-45
2023/08/18 06:46:30;;;;;;;7.18;3.60;;;;;;;;;;5042691;28;20030;-45
2023/08/18 06:48:55;;;;;;;7.50;3.27;;;;;;;;;;5034818;28;20104;-45
2023/08/18 06:51:20;;;;;;;12.30;3.75;;;;;;;;;;5033907;28;20271;-45
2023/08/18 06:53:46;;;;;;;11.82;3.85;;;;;;;;;;5037488;28;20031;-45
2023/08/18 06:56:11;;;;;;;16.57;4.67;;;;;;;;;;5026760;28;20028;-45
2023/08/18 06:58:36;;;;;;;7.03;3.43;;;;;;;;;;5040728;28;20472;-45
2023/08/18 07:01:03;;;;;;;7.10;3.97;;;;;;;;;;5036172;28;20068;-45
2023/08/18 07:03:28;;;;;;;8.07;4.03;;;;;;;;;;5041941;28;20311;-45
2023/08/18 07:05:55;;;;;;;2.53;2.13;;;;;;;;;;5034456;28;20036;-45
2023/08/18 07:08:21;;;;;;;13.63;4.82;;;;;;;;;;5034381;28;20308;-45
2023/08/18 07:10:46;;;;;;;8.00;4.78;;;;;;;;;;5039638;28;20017;-45
2023/08/18 07:13:12;;;;;;;5.80;3.83;;;;;;;;;;5041100;28;20068;-45
2023/08/18 07:15:37;;;;;;;10.20;3.80;;;;;;;;;;5043068;28;20021;-45
2023/08/18 07:18:02;;;;;;;7.53;3.57;;;;;;;;;;5045034;28;20395;-45
2023/08/18 07:20:28;;;;;;;6.68;4.15;;;;;;;;;;5038523;28;20064;-45
2023/08/18 07:22:55;;;;;;;6.50;4.40;;;;;;;;;;5045195;28;20071;-45
2023/08/18 07:25:20;;;;;;;7.00;4.47;;;;;;;;;;5046141;28;20316;-45
2023/08/18 07:27:45;;;;;;;7.67;4.13;;;;;;;;;;5038179;28;20476;-45
2023/08/18 07:30:11;;;;;;;6.30;4.03;;;;;;;;;;5047987;28;20021;-45
2023/08/18 07:32:36;;;;;;;8.88;3.83;;;;;;;;;;5045381;28;20029;-45
2023/08/18 07:35:05;;;;;;;9.80;3.97;;;;;;;;;;5044763;28;20017;-45
2023/08/18 07:37:31;;;;;;;6.97;3.70;;;;;;;;;;5022501;28;20032;-45
2023/08/18 07:39:56;;;;;;;6.83;4.57;;;;;;;;;;5038592;28;20025;-45
2023/08/18 07:42:21;;;;;;;11.63;4.03;;;;;;;;;;5055386;22;20368;-47
2023/08/18 07:44:47;;;;;;;12.23;4.30;;;;;;;;;;4998816;28;20025;-46
2023/08/18 07:47:12;;;;;;;7.68;4.60;;;;;;;;;;5032369;28;20661;-46
2023/08/18 07:49:38;;;;;;;6.77;4.40;;;;;;;;;;5039762;28;20498;-46
2023/08/18 07:52:03;;;;;;;9.17;4.43;;;;;;;;;;5032160;28;20025;-46
2023/08/18 07:54:28;;;;;;;12.45;4.75;;;;;;;;;;5033678;28;20475;-46
2023/08/18 07:56:54;;;;;;;9.47;4.60;;;;;;;;;;5040841;28;20131;-46
2023/08/18 07:59:19;;;;;;;8.30;3.70;;;;;;;;;;5043994;28;20287;-46
2023/08/18 08:01:45;;;;;;;8.63;4.25;;;;;;;;;;5031717;28;20509;-46
2023/08/18 08:04:10;;;;;;;7.37;4.00;;;;;;;;;;5042034;28;20100;-46
2023/08/18 08:06:35;;;;;;;11.47;5.90;;;;;;;;;;5039238;28;20279;-47
2023/08/18 08:09:01;;;;;;;9.70;4.47;;;;;;;;;;5038799;28;20062;-46
2023/08/18 08:11:26;;;;;;;7.75;4.43;;;;;;;;;;5035445;28;20431;-46
2023/08/18 08:13:51;;;;;;;8.10;4.15;;;;;;;;;;5037914;28;20597;-46
2023/08/18 08:16:17;;;;;;;7.70;4.50;;;;;;;;;;5040652;28;20086;-46
2023/08/18 08:18:43;;;;;;;10.60;4.47;;;;;;;;;;5042578;28;20281;-46
2023/08/18 08:21:08;;;;;;;15.10;4.90;;;;;;;;;;5044775;28;20163;-46
2023/08/18 08:23:34;;;;;;;9.87;4.70;;;;;;;;;;5038964;28;20115;-47
2023/08/18 08:25:59;;;;;;;7.45;4.88;;;;;;;;;;5046015;28;20104;-46
2023/08/18 08:28:24;;;;;;;8.25;4.68;;;;;;;;;;5045336;28;20044;-46
2023/08/18 08:30:49;;;;;;;8.23;4.33;;;;;;;;;;5043849;28;20032;-46
2023/08/18 08:33:15;;;;;;;7.17;4.43;;;;;;;;;;5041906;28;20076;-47
2023/08/18 08:35:40;;;;;;;9.33;4.70;;;;;;;;;;5043502;28;20268;-46
2023/08/18 08:38:05;;;;;;;10.35;5.10;;;;;;;;;;5045108;28;20500;-46
2023/08/18 08:40:31;;;;;;;8.63;4.15;;;;;;;;;;5044389;28;20529;-46
2023/08/18 08:42:56;;;;;;;14.57;4.90;;;;;;;;;;5042579;28;20364;-47
2023/08/18 08:45:25;;;;;;;18.20;6.63;;;;;;;;;;5039082;28;20355;-46
2023/08/18 08:47:51;;;;;;;9.85;4.90;;;;;;;;;;5037810;28;20049;-47
2023/08/18 08:50:17;;;;;;;11.02;4.90;;;;;;;;;;5044004;28;20450;-47
2023/08/18 08:52:44;;;;;;;9.77;5.05;;;;;;;;;;5044738;28;20427;-47
2023/08/18 08:55:10;;;;;;;7.85;3.15;;;;;;;;;;5043644;28;20782;-47
2023/08/18 08:57:36;;;;;;;8.63;5.15;;;;;;;;;;5041252;28;20621;-46
2023/08/18 09:00:03;;;;;;;8.73;4.90;;;;;;;;;;5044861;28;20021;-47
2023/08/18 09:02:28;;;;;;;9.27;5.60;;;;;;;;;;5034090;28;20454;-46
2023/08/18 09:04:53;;;;;;;12.13;7.57;;;;;;;;;;5034702;28;20055;-46
2023/08/18 09:07:18;;;;;;;13.80;6.65;;;;;;;;;;5037629;28;20013;-47
2023/08/18 09:09:44;;;;;;;8.97;6.33;;;;;;;;;;5044707;28;20048;-46
2023/08/18 09:12:10;;;;;;;11.73;6.77;;;;;;;;;;5045266;28;20021;-47
2023/08/18 09:14:37;;;;;;;13.32;6.45;;;;;;;;;;5041401;28;20083;-46
2023/08/18 09:17:03;;;;;;;8.95;6.60;;;;;;;;;;5044127;28;20116;-46
2023/08/18 09:19:28;;;;;;;10.02;6.18;;;;;;;;;;5041622;28;20124;-46
2023/08/18 09:21:56;;;;;;;10.82;5.78;;;;;;;;;;5045214;28;20265;-46
2023/08/18 09:24:21;;;;;;;9.85;6.13;;;;;;;;;;5045551;28;20062;-46
2023/08/18 09:26:46;;;;;;;10.13;5.60;;;;;;;;;;5023025;28;20037;-46
2023/08/18 09:29:11;;;;;;;9.87;5.57;;;;;;;;;;5021994;28;20287;-46
2023/08/18 09:31:37;;;;;;;14.20;5.80;;;;;;;;;;5028105;28;20292;-47
2023/08/18 09:34:02;;;;;;;10.20;6.13;;;;;;;;;;5042748;28;20033;-47
2023/08/18 09:36:30;;;;;;;9.70;5.53;;;;;;;;;;5043582;28;20530;-47
2023/08/18 09:38:55;;;;;;;10.45;5.18;;;;;;;;;;5047134;28;20033;-47
2023/08/18 09:41:21;;;;;;;13.37;5.60;;;;;;;;;;5045791;28;20376;-47
2023/08/18 09:43:46;;;;;;;15.93;6.45;;;;;;;;;;5047919;28;20378;-46
2023/08/18 09:46:12;;;;;;;10.10;5.77;;;;;;;;;;5038271;28;20035;-46
2023/08/18 09:48:38;;;;;;;5.05;3.50;;;;;;;;;;5046454;28;20282;-46
2023/08/18 09:51:08;;;;;;;8.93;6.03;;;;;;;;;;5043968;28;20383;-46
2023/08/18 09:53:33;;;;;;;9.25;5.30;;;;;;;;;;5036228;28;20063;-47
2023/08/18 09:56:04;;;;;;;22.17;10.02;;;;;;;;;;5035478;28;20021;-47
2023/08/18 09:58:35;;;;;;;14.60;6.70;;;;;;;;;;5036337;28;20037;-47
2023/08/18 10:01:02;;;;;;;12.70;6.10;;;;;;;;;;5034406;28;20025;-46
2023/08/18 10:03:29;;;;;;;8.10;5.55;;;;;;;;;;5030985;28;20024;-46
2023/08/18 10:05:54;;;;;;;12.60;7.07;;;;;;;;;;5038328;28;20456;-46
2023/08/18 10:08:23;;;;;;;10.38;6.18;;;;;;;;;;5014236;28;20386;-47
2023/08/18 10:10:51;;;;;;;9.48;6.07;;;;;;;;;;5040346;28;20496;-47
2023/08/18 10:13:16;;;;;;;8.88;6.03;;;;;;;;;;5039794;28;20022;-47
2023/08/18 10:15:42;;;;;;;9.98;5.85;;;;;;;;;;5021053;28;20075;-47
2023/08/18 10:18:09;;;;;;;8.63;5.57;;;;;;;;;;5046427;28;20048;-47
2023/08/18 10:20:35;;;;;;;13.70;6.18;;;;;;;;;;5044243;28;20040;-46
2023/08/18 10:23:01;;;;;;;12.93;6.15;;;;;;;;;;5045333;28;20040;-47
2023/08/18 10:25:29;;;;;;;7.85;5.35;;;;;;;;;;5042143;28;20030;-47
2023/08/18 10:27:54;;;;;;;16.00;6.80;;;;;;;;;;5040889;28;20082;-46
2023/08/18 10:30:23;;;;;;;15.02;8.05;;;;;;;;;;5052854;28;20275;-46
2023/08/18 10:32:50;;;;;;;13.48;8.13;;;;;;;;;;5037847;28;20130;-46
2023/08/18 10:35:15;;;;;;;5.85;3.85;;;;;;;;;;5046451;28;20095;-46
2023/08/18 10:37:42;;;;;;;13.67;6.30;;;;;;;;;;5047054;28;20602;-46
2023/08/18 10:40:08;;;;;;;8.77;5.90;;;;;;;;;;5045715;28;20100;-46
2023/08/18 10:42:33;;;;;;;12.50;6.53;;;;;;;;;;5043746;28;20108;-46
2023/08/18 10:45:05;;;;;;;12.73;6.10;;;;;;;;;;5040755;28;20018;-47
2023/08/18 10:47:31;;;;;;;7.30;3.90;;;;;;;;;;5042657;28;20765;-46
2023/08/18 10:49:57;;;;;;;9.48;6.50;;;;;;;;;;5047992;28;20043;-46
2023/08/18 10:52:22;;;;;;;12.48;6.40;;;;;;;;;;5027461;28;20430;-47
2023/08/18 10:54:47;;;;;;;13.97;6.83;;;;;;;;;;5046468;28;20499;-46
2023/08/18 10:57:13;;;;;;;8.30;5.97;;;;;;;;;;5046888;28;20017;-46
2023/08/18 10:59:38;;;;;;;15.70;8.23;;;;;;;;;;5039488;28;20039;-46
2023/08/18 11:02:03;;;;;;;11.93;7.20;;;;;;;;;;5036458;28;20283;-46
2023/08/18 11:04:29;;;;;;;10.13;5.13;;;;;;;;;;5044442;28;20040;-47
2023/08/18 11:06:55;;;;;;;12.10;6.37;;;;;;;;;;5032524;28;20278;-46
2023/08/18 11:09:20;;;;;;;11.27;6.77;;;;;;;;;;5038629;28;20055;-47
2023/08/18 11:11:47;;;;;;;9.57;6.50;;;;;;;;;;5040441;28;20029;-46
2023/08/18 11:14:12;;;;;;;19.33;13.93;;;;;;;;;;5040426;28;20052;-47
2023/08/18 11:16:38;;;;;;;9.23;6.67;;;;;;;;;;5040335;28;20060;-46
2023/08/18 11:19:04;;;;;;;13.13;7.07;;;;;;;;;;5041768;28;20033;-45
2023/08/18 11:21:30;;;;;;;11.13;6.65;;;;;;;;;;5035690;28;20041;-47
2023/08/18 11:23:55;;;;;;;12.07;6.55;;;;;;;;;;5037624;28;20108;-46
2023/08/18 11:26:20;;;;;;;9.77;6.13;;;;;;;;;;5038694;28;20029;-46
2023/08/18 11:28:46;;;;;;;11.77;6.67;;;;;;;;;;5035140;28;20037;-46
2023/08/18 11:31:12;;;;;;;13.63;6.90;;;;;;;;;;5039666;28;20461;-46
2023/08/18 11:33:37;;;;;;;12.82;6.22;;;;;;;;;;5038419;28;20024;-47
2023/08/18 11:36:03;;;;;;;10.48;6.88;;;;;;;;;;5041443;28;20013;-46
2023/08/18 11:38:29;;;;;;;9.80;6.80;;;;;;;;;;5041395;28;20032;-46
2023/08/18 11:40:55;;;;;;;11.25;7.13;;;;;;;;;;5017908;28;20033;-46
2023/08/18 11:43:21;;;;;;;13.07;7.20;;;;;;;;;;5039557;28;20041;-46
2023/08/18 11:45:47;;;;;;;10.30;6.65;;;;;;;;;;5040056;28;20033;-46
2023/08/18 11:48:13;;;;;;;11.40;6.53;;;;;;;;;;5036830;28;20425;-46
2023/08/18 11:50:39;;;;;;;8.90;6.43;;;;;;;;;;5033436;28;20108;-46
2023/08/18 11:53:06;;;;;;;10.88;7.30;;;;;;;;;;5043327;28;20032;-46
2023/08/18 11:55:32;;;;;;;11.68;6.57;;;;;;;;;;5036715;28;20044;-46
2023/08/18 11:57:58;;;;;;;15.68;7.65;;;;;;;;;;5036771;28;20111;-46
2023/08/18 12:00:30;;;;;;;11.73;6.63;;;;;;;;;;5039081;28;20111;-46
2023/08/18 12:02:55;;;;;;;10.27;5.97;;;;;;;;;;5042983;28;20638;-46
2023/08/18 12:05:22;;;;;;;12.20;6.30;;;;;;;;;;5033022;28;20033;-47
2023/08/18 12:07:48;;;;;;;12.18;7.18;;;;;;;;;;5037899;28;20064;-46
2023/08/18 12:10:13;;;;;;;11.23;6.35;;;;;;;;;;5036700;28;20029;-47
2023/08/18 12:12:39;;;;;;;10.25;5.97;;;;;;;;;;5030447;28;20021;-47
2023/08/18 12:15:04;;;;;;;39.27;21.77;;;;;;;;;;5037058;28;20029;-46
2023/08/18 12:17:30;;;;;;;22.42;14.80;;;;;;;;;;5037812;28;20045;-46
2023/08/18 12:19:55;;;;;;;10.88;7.47;;;;;;;;;;5025347;28;20056;-46
2023/08/18 12:22:21;;;;;;;11.35;7.05;;;;;;;;;;5038831;28;20422;-46
2023/08/18 12:24:46;;;;;;;11.40;6.77;;;;;;;;;;5038849;28;20471;-46
2023/08/18 12:27:12;;;;;;;8.03;6.20;;;;;;;;;;5040825;28;20275;-47
2023/08/18 12:29:37;;;;;;;13.32;6.13;;;;;;;;;;5031007;28;20287;-47
2023/08/18 12:32:03;;;;;;;14.37;6.90;;;;;;;;;;5040113;28;20052;-46
2023/08/18 12:34:28;;;;;;;12.75;6.50;;;;;;;;;;5044929;28;20100;-46
2023/08/18 12:36:56;;;;;;;10.87;7.17;;;;;;;;;;5045863;28;20179;-47
2023/08/18 12:39:21;;;;;;;12.93;6.70;;;;;;;;;;5043803;28;20114;-47
2023/08/18 12:41:46;;;;;;;10.33;6.00;;;;;;;;;;5043694;28;20495;-47
2023/08/18 12:44:12;;;;;;;11.57;7.43;;;;;;;;;;5043550;28;20040;-47
2023/08/18 12:46:38;;;;;;;9.32;6.40;;;;;;;;;;5045906;28;20029;-47
2023/08/18 12:49:04;;;;;;;11.10;6.20;;;;;;;;;;5042471;28;20017;-47
2023/08/18 12:51:30;;;;;;;11.80;6.72;;;;;;;;;;5041348;28;20530;-46
2023/08/18 12:53:55;;;;;;;9.65;7.00;;;;;;;;;;5026623;28;20039;-46
2023/08/18 12:56:20;;;;;;;12.63;6.30;;;;;;;;;;5039755;28;20075;-47
2023/08/18 12:58:46;;;;;;;11.40;6.33;;;;;;;;;;5037669;28;20033;-47
2023/08/18 13:01:12;;;;;;;14.10;8.60;;;;;;;;;;5041654;28;20099;-46
2023/08/18 13:03:37;;;;;;;13.05;9.02;;;;;;;;;;5045515;28;20029;-47
2023/08/18 13:06:03;;;;;;;13.90;6.80;;;;;;;;;;5045415;28;20028;-47
2023/08/18 13:08:29;;;;;;;13.25;6.63;;;;;;;;;;5039641;28;20279;-47
2023/08/18 13:10:54;;;;;;;11.45;6.50;;;;;;;;;;5034669;28;20039;-47
2023/08/18 13:13:20;;;;;;;17.07;9.53;;;;;;;;;;5037975;28;20021;-47
2023/08/18 13:15:45;;;;;;;13.13;8.10;;;;;;;;;;5042187;28;20034;-47
2023/08/18 13:18:10;;;;;;;10.53;7.03;;;;;;;;;;5044596;28;20024;-46
2023/08/18 13:20:36;;;;;;;12.27;7.00;;;;;;;;;;5031138;28;20609;-46
2023/08/18 13:23:03;;;;;;;9.88;7.05;;;;;;;;;;5039494;28;20020;-46
2023/08/18 13:25:32;;;;;;;10.07;6.75;;;;;;;;;;5036071;28;20021;-47
2023/08/18 13:27:58;;;;;;;9.60;6.63;;;;;;;;;;5027496;28;20565;-47
2023/08/18 13:30:24;;;;;;;14.43;7.50;;;;;;;;;;5021338;28;20021;-47
2023/08/18 13:32:49;;;;;;;14.85;6.70;;;;;;;;;;5038391;28;20122;-47
2023/08/18 13:35:15;;;;;;;8.77;6.00;;;;;;;;;;5036046;28;20490;-47
2023/08/18 13:37:40;;;;;;;15.03;6.23;;;;;;;;;;5036113;28;20442;-47
2023/08/18 13:40:05;;;;;;;14.43;8.53;;;;;;;;;;5039378;28;20047;-46
2023/08/18 13:42:31;;;;;;;12.60;8.18;;;;;;;;;;5022843;28;20144;-47
2023/08/18 13:44:56;;;;;;;13.83;6.53;;;;;;;;;;5047391;28;20111;-47
2023/08/18 13:47:21;;;;;;;4.87;3.73;;;;;;;;;;5044512;28;20017;-47
2023/08/18 13:49:46;;;;;;;15.80;6.13;;;;;;;;;;5037190;28;20037;-46
2023/08/18 13:52:12;;;;;;;15.67;6.33;;;;;;;;;;5043929;28;20367;-46
2023/08/18 13:54:37;;;;;;;10.77;5.53;;;;;;;;;;5040462;28;20325;-46
2023/08/18 13:57:02;;;;;;;16.27;7.77;;;;;;;;;;5041397;28;20084;-46
2023/08/18 13:59:28;;;;;;;13.07;6.20;;;;;;;;;;5043851;28;20042;-46
2023/08/18 14:01:53;;;;;;;8.57;5.33;;;;;;;;;;5040357;28;20279;-47
2023/08/18 14:04:18;;;;;;;12.90;6.27;;;;;;;;;;5046867;28;20475;-47
2023/08/18 14:06:44;;;;;;;9.63;5.93;;;;;;;;;;5034591;28;20037;-46
2023/08/18 14:09:09;;;;;;;11.52;6.35;;;;;;;;;;5029797;28;20032;-46
2023/08/18 14:11:34;;;;;;;10.47;5.83;;;;;;;;;;5038234;28;20013;-46
2023/08/18 14:14:00;;;;;;;12.00;6.00;;;;;;;;;;5040033;28;20329;-46
2023/08/18 14:16:25;;;;;;;10.57;5.80;;;;;;;;;;5015181;28;20360;-46
2023/08/18 14:18:53;;;;;;;13.40;6.23;;;;;;;;;;5040266;28;20342;-47
2023/08/18 14:21:18;;;;;;;10.27;6.03;;;;;;;;;;5044783;28;20496;-47
2023/08/18 14:23:44;;;;;;;9.60;5.75;;;;;;;;;;5041828;28;20056;-46
2023/08/18 14:26:09;;;;;;;21.20;6.43;;;;;;;;;;5035365;28;20051;-46
2023/08/18 14:28:34;;;;;;;11.27;5.73;;;;;;;;;;5041752;28;20025;-47